createdAt,value
2019-04-06T00:00:52.299Z,95432.05
2019-04-06T00:03:23.674Z,95436.23
2019-04-06T00:05:54.712Z,95436.95
2019-04-06T00:08:26.325Z,95434.66
2019-04-06T00:10:57.380Z,95425.17
2019-04-06T00:13:28.466Z,95425.86
2019-04-06T00:15:59.809Z,95422.95
2019-04-06T00:18:31.054Z,95415.91
2019-04-06T00:21:02.419Z,95420.70
2019-04-06T00:23:34.490Z,95416.66
2019-04-06T00:26:05.778Z,95405.27
2019-04-06T00:28:36.978Z,95419.53
2019-04-06T00:31:19.822Z,95410.92
2019-04-06T00:33:50.892Z,95414.51
2019-04-06T00:36:21.927Z,95414.40
2019-04-06T00:38:53.017Z,95420.66
2019-04-06T00:41:24.169Z,95414.64
2019-04-06T00:43:56.290Z,95404.52
2019-04-06T00:46:27.485Z,95412.08
2019-04-06T00:48:58.559Z,95415.41
2019-04-06T00:51:30.287Z,95405.39
2019-04-06T00:54:01.476Z,95403.85
2019-04-06T00:56:32.668Z,95400.59
2019-04-06T00:59:03.799Z,95400.07
2019-04-06T01:01:34.885Z,95400.39
2019-04-06T01:04:06.105Z,95396.17
2019-04-06T01:06:37.253Z,95396.21
2019-04-06T01:09:10.899Z,95393.25
2019-04-06T01:11:43.140Z,95390.99
2019-04-06T01:14:14.206Z,95388.38
2019-04-06T01:16:45.212Z,95392.72
2019-04-06T01:19:16.204Z,95393.75
2019-04-06T01:21:47.186Z,95396.16
2019-04-06T01:24:18.504Z,95394.81
2019-04-06T01:26:49.859Z,95392.66
2019-04-06T01:29:20.978Z,95394.89
2019-04-06T01:31:52.046Z,95394.98
2019-04-06T01:34:23.391Z,95391.03
2019-04-06T01:36:54.590Z,95387.49
2019-04-06T01:39:26.446Z,95389.83
2019-04-06T01:41:57.470Z,95384.45
2019-04-06T01:44:28.501Z,95386.45
2019-04-06T01:46:59.649Z,95382.07
2019-04-06T01:49:30.704Z,95384.34
2019-04-06T01:52:02.891Z,95384.67
2019-04-06T01:54:34.088Z,95391.91
2019-04-06T01:57:05.066Z,95381.77
2019-04-06T01:59:36.707Z,95380.33
2019-04-06T02:02:16.029Z,95382.95
2019-04-06T02:04:47.104Z,95380.47
2019-04-06T02:07:18.147Z,95379.58
2019-04-06T02:09:49.174Z,95375.50
2019-04-06T02:12:20.220Z,95381.17
2019-04-06T02:14:51.436Z,95381.64
2019-04-06T02:17:22.560Z,95378.12
2019-04-06T02:19:54.631Z,95386.38
2019-04-06T02:22:26.642Z,95386.28
2019-04-06T02:24:57.760Z,95389.13
2019-04-06T02:27:28.773Z,95378.95
2019-04-06T02:30:23.139Z,95388.47
2019-04-06T02:33:31.415Z,95384.29
2019-04-06T02:36:12.772Z,95392.05
2019-04-06T02:39:11.763Z,95395.08
2019-04-06T02:41:51.187Z,95398.92
2019-04-06T02:44:22.433Z,95387.06
2019-04-06T02:46:54.161Z,95392.55
2019-04-06T02:49:26.781Z,95394.41
2019-04-06T02:51:57.996Z,95390.83
2019-04-06T02:54:29.078Z,95390.63
2019-04-06T02:57:00.214Z,95387.59
2019-04-06T02:59:31.350Z,95387.73
2019-04-06T03:02:02.672Z,95393.67
2019-04-06T03:04:34.016Z,95386.50
2019-04-06T03:07:05.464Z,95389.65
2019-04-06T03:09:36.614Z,95387.66
2019-04-06T03:12:07.737Z,95388.47
2019-04-06T03:14:38.833Z,95392.98
2019-04-06T03:17:09.837Z,95386.07
2019-04-06T03:19:41.097Z,95385.48
2019-04-06T03:22:12.453Z,95386.07
2019-04-06T03:24:43.740Z,95379.98
2019-04-06T03:27:14.747Z,95382.72
2019-04-06T03:29:57.263Z,95378.09
2019-04-06T03:32:19.102Z,95378.35
2019-04-06T03:34:50.123Z,95385.77
2019-04-06T03:37:22.326Z,95383.88
2019-04-06T03:39:54.558Z,95383.12
2019-04-06T03:42:26.742Z,95383.89
2019-04-06T03:44:58.095Z,95381.63
2019-04-06T03:47:29.590Z,95388.47
2019-04-06T03:50:00.567Z,95386.46
2019-04-06T03:52:31.672Z,95392.30
2019-04-06T03:55:02.822Z,95392.64
2019-04-06T03:57:33.819Z,95388.31
2019-04-06T04:00:06.559Z,95389.09
2019-04-06T04:02:37.901Z,95387.83
2019-04-06T04:05:09.524Z,95387.55
2019-04-06T04:07:40.631Z,95379.13
2019-04-06T04:10:28.768Z,95386.33
2019-04-06T04:13:00.173Z,95382.20
2019-04-06T04:15:31.345Z,95383.03
2019-04-06T04:18:02.718Z,95379.56
2019-04-06T04:20:33.810Z,95377.89
2019-04-06T04:23:05.008Z,95382.58
2019-04-06T04:25:36.038Z,95375.63
2019-04-06T04:28:08.066Z,95379.40
2019-04-06T04:30:39.065Z,95381.06
2019-04-06T04:33:10.074Z,95382.23
2019-04-06T04:35:41.044Z,95387.63
2019-04-06T04:38:12.008Z,95386.25
2019-04-06T04:40:43.348Z,95388.00
2019-04-06T04:43:14.440Z,95387.67
2019-04-06T04:45:45.481Z,95394.49
2019-04-06T04:48:16.740Z,95393.14
2019-04-06T04:50:47.998Z,95391.06
2019-04-06T04:53:19.303Z,95393.11
2019-04-06T04:55:50.269Z,95393.64
2019-04-06T04:58:21.314Z,95392.16
2019-04-06T05:00:52.327Z,95400.59
2019-04-06T05:03:24.558Z,95396.65
2019-04-06T05:05:55.567Z,95393.46
2019-04-06T05:08:27.208Z,95394.07
2019-04-06T05:10:58.554Z,95392.78
2019-04-06T05:13:29.839Z,95398.94
2019-04-06T05:16:18.158Z,95396.78
2019-04-06T05:18:49.510Z,95400.23
2019-04-06T05:21:20.686Z,95391.97
2019-04-06T05:23:51.854Z,95392.09
2019-04-06T05:26:22.823Z,95396.45
2019-04-06T05:28:53.873Z,95404.04
2019-04-06T05:31:25.010Z,95401.30
2019-04-06T05:33:57.130Z,95400.90
2019-04-06T05:36:28.146Z,95401.67
2019-04-06T05:38:59.167Z,95410.32
2019-04-06T05:41:30.281Z,95412.28
2019-04-06T05:44:02.978Z,95418.28
2019-04-06T05:46:34.199Z,95416.77
2019-04-06T05:49:05.388Z,95418.36
2019-04-06T05:51:36.600Z,95421.91
2019-04-06T05:54:08.044Z,95427.50
2019-04-06T05:56:39.420Z,95420.86
2019-04-06T05:59:10.934Z,95426.77
2019-04-06T06:01:41.995Z,95429.17
2019-04-06T06:04:13.166Z,95437.09
2019-04-06T06:06:44.219Z,95431.41
2019-04-06T06:09:15.193Z,95438.39
2019-04-06T06:11:46.166Z,95436.26
2019-04-06T06:14:17.151Z,95435.27
2019-04-06T06:16:48.143Z,95433.47
2019-04-06T06:19:19.171Z,95445.23
2019-04-06T06:21:50.230Z,95439.98
2019-04-06T06:24:21.553Z,95435.98
2019-04-06T06:26:52.967Z,95433.45
2019-04-06T06:29:23.951Z,95438.94
2019-04-06T06:31:54.987Z,95428.41
2019-04-06T06:34:27.509Z,95435.37
2019-04-06T06:39:29.704Z,95439.84
2019-04-06T06:42:00.752Z,95444.60
2019-04-06T06:44:31.871Z,95444.28
2019-04-06T06:47:02.947Z,95448.99
2019-04-06T06:49:33.966Z,95445.59
2019-04-06T06:52:05.097Z,95451.66
2019-04-06T06:54:36.132Z,95442.43
2019-04-06T06:57:07.162Z,95450.22
2019-04-06T06:59:38.135Z,95448.63
2019-04-06T07:02:09.207Z,95447.53
2019-04-06T07:04:40.326Z,95451.92
2019-04-06T07:07:11.913Z,95447.56
2019-04-06T07:09:43.765Z,95454.91
2019-04-06T07:12:16.237Z,95458.84
2019-04-06T07:14:47.386Z,95454.02
2019-04-06T07:17:18.357Z,95454.44
2019-04-06T07:19:49.473Z,95452.95
2019-04-06T07:22:20.482Z,95446.84
2019-04-06T07:24:51.455Z,95447.55
2019-04-06T07:27:22.511Z,95447.84
2019-04-06T07:29:53.577Z,95447.97
2019-04-06T07:32:24.533Z,95445.63
2019-04-06T07:34:55.549Z,95444.66
2019-04-06T07:37:27.539Z,95447.69
2019-04-06T07:39:58.639Z,95438.36
2019-04-06T07:42:29.632Z,95436.64
2019-04-06T07:45:00.962Z,95432.04
2019-04-06T07:47:32.231Z,95438.62
2019-04-06T07:50:03.534Z,95430.80
2019-04-06T07:52:34.581Z,95429.20
2019-04-06T07:55:05.931Z,95424.12
2019-04-06T07:57:36.958Z,95421.73
2019-04-06T08:00:08.201Z,95422.61
2019-04-06T08:02:39.202Z,95420.41
2019-04-06T08:05:10.378Z,95424.89
2019-04-06T08:07:41.411Z,95414.98
2019-04-06T08:10:13.085Z,95406.31
2019-04-06T08:12:44.079Z,95402.88
2019-04-06T08:15:15.863Z,95403.49
2019-04-06T08:17:48.297Z,95398.25
2019-04-06T08:20:19.528Z,95399.59
2019-04-06T08:22:50.821Z,95403.11
2019-04-06T08:25:22.351Z,95403.03
2019-04-06T08:27:53.460Z,95404.59
2019-04-06T08:30:24.538Z,95395.14
2019-04-06T08:32:55.567Z,95402.88
2019-04-06T08:35:27.883Z,95400.41
2019-04-06T08:37:58.954Z,95400.04
2019-04-06T08:40:30.109Z,95400.98
2019-04-06T08:43:01.333Z,95398.52
2019-04-06T08:45:32.992Z,95398.50
2019-04-06T08:48:04.077Z,95397.52
2019-04-06T08:50:35.074Z,95394.66
2019-04-06T08:53:06.091Z,95392.04
2019-04-06T08:55:37.430Z,95396.34
2019-04-06T08:58:08.501Z,95392.38
2019-04-06T09:00:39.545Z,95394.17
2019-04-06T09:03:10.572Z,95383.60
2019-04-06T09:05:41.697Z,95386.23
2019-04-06T09:08:12.766Z,95382.80
2019-04-06T09:10:44.023Z,95379.19
2019-04-06T09:13:15.051Z,95387.08
2019-04-06T09:15:46.109Z,95383.17
2019-04-06T09:18:17.133Z,95385.14
2019-04-06T09:20:48.333Z,95388.47
2019-04-06T09:23:19.924Z,95390.12
2019-04-06T09:25:51.680Z,95380.94
2019-04-06T09:28:22.776Z,95379.86
2019-04-06T09:30:54.189Z,95383.11
2019-04-06T09:33:25.228Z,95381.56
2019-04-06T09:35:56.250Z,95382.64
2019-04-06T09:38:27.833Z,95380.48
2019-04-06T09:40:58.930Z,95379.16
2019-04-06T09:43:30.180Z,95379.22
2019-04-06T09:46:19.482Z,95368.70
2019-04-06T09:49:09.643Z,95369.20
2019-04-06T09:52:06.084Z,95361.48
2019-04-06T09:54:54.259Z,95353.59
2019-04-06T09:57:44.899Z,95350.70
2019-04-06T10:00:38.073Z,95344.08
2019-04-06T10:03:23.111Z,95343.53
2019-04-06T10:06:21.108Z,95341.88
2019-04-06T10:09:11.039Z,95340.05
2019-04-06T10:12:06.992Z,95341.39
2019-04-06T10:14:55.569Z,95339.05
2019-04-06T10:17:36.612Z,95337.22
2019-04-06T10:20:28.558Z,95335.08
2019-04-06T10:23:19.135Z,95332.13
2019-04-06T10:26:09.484Z,95331.36
2019-04-06T10:28:52.374Z,95327.64
2019-04-06T10:31:41.137Z,95321.55
2019-04-06T10:34:27.731Z,95320.23
2019-04-06T10:37:20.986Z,95309.40
2019-04-06T10:40:29.748Z,95307.64
2019-04-06T10:43:28.823Z,95312.70
2019-04-06T10:46:13.257Z,95306.34
2019-04-06T10:49:18.623Z,95300.02
2019-04-06T10:52:06.682Z,95301.88
2019-04-06T10:54:56.824Z,95309.55
2019-04-06T10:57:56.197Z,95294.19
2019-04-06T11:00:32.898Z,95290.75
2019-04-06T11:03:25.851Z,95285.20
2019-04-06T11:06:04.664Z,95286.23
2019-04-06T11:08:54.569Z,95292.05
2019-04-06T11:11:44.568Z,95293.63
2019-04-06T11:14:37.645Z,95289.92
2019-04-06T11:17:27.237Z,95293.57
2019-04-06T11:20:17.412Z,95297.80
2019-04-06T11:23:01.102Z,95296.47
2019-04-06T11:25:51.337Z,95291.43
2019-04-06T11:28:38.620Z,95303.33
2019-04-06T11:31:20.829Z,95294.03
2019-04-06T11:34:05.552Z,95295.34
2019-04-06T11:36:58.812Z,95299.30
2019-04-06T11:39:48.291Z,95303.04
2019-04-06T11:42:44.354Z,95308.13
2019-04-06T11:45:27.169Z,95311.09
2019-04-06T11:48:14.170Z,95306.86
2019-04-06T11:51:07.470Z,95303.15
2019-04-06T11:53:55.900Z,95311.09
2019-04-06T11:56:40.396Z,95313.48
2019-04-06T11:59:19.945Z,95312.34
2019-04-06T12:02:18.745Z,95313.62
2019-04-06T12:05:07.309Z,95307.82
2019-04-06T12:07:56.939Z,95311.02
2019-04-06T12:10:43.475Z,95310.76
2019-04-06T12:13:42.781Z,95309.70
2019-04-06T12:16:31.563Z,95311.31
2019-04-06T12:19:24.319Z,95317.12
2019-04-06T12:22:03.114Z,95309.70
2019-04-06T12:24:56.724Z,95310.77
2019-04-06T12:27:49.927Z,95306.28
2019-04-06T12:30:39.331Z,95303.34
2019-04-06T12:33:29.625Z,95313.73
2019-04-06T12:36:19.620Z,95313.19
2019-04-06T12:39:12.415Z,95313.99
2019-04-06T12:42:09.574Z,95313.99
2019-04-06T12:44:50.920Z,95309.77
2019-04-06T12:47:37.380Z,95309.51
2019-04-06T12:50:19.921Z,95302.38
2019-04-06T12:53:12.755Z,95303.70
2019-04-06T12:56:07.449Z,95303.98
2019-04-06T12:58:56.403Z,95306.89
2019-04-06T13:01:50.470Z,95304.50
2019-04-06T13:04:43.460Z,95288.88
2019-04-06T13:07:37.976Z,95286.47
2019-04-06T13:10:37.223Z,95283.82
2019-04-06T13:13:36.489Z,95279.88
2019-04-06T13:16:14.472Z,95276.33
2019-04-06T13:19:07.432Z,95271.86
2019-04-06T13:22:05.408Z,95280.34
2019-04-06T13:24:55.811Z,95267.95
2019-04-06T13:27:45.362Z,95268.49
2019-04-06T13:30:34.365Z,95259.51
2019-04-06T13:33:12.944Z,95262.67
2019-04-06T13:35:50.772Z,95262.94
2019-04-06T13:38:39.900Z,95256.59
2019-04-06T13:41:25.260Z,95263.98
2019-04-06T13:44:10.295Z,95263.47
2019-04-06T13:46:52.742Z,95264.26
2019-04-06T13:49:45.899Z,95255.55
2019-04-06T13:52:38.834Z,95249.18
2019-04-06T13:55:21.924Z,95251.05
2019-04-06T13:58:15.550Z,95252.09
2019-04-06T14:01:14.787Z,95253.41
2019-04-06T14:03:56.825Z,95257.11
2019-04-06T14:06:35.013Z,95253.16
2019-04-06T14:09:40.043Z,95252.87
2019-04-06T14:12:28.805Z,95258.17
2019-04-06T14:15:17.617Z,95250.73
2019-04-06T14:18:04.600Z,95247.30
2019-04-06T14:20:53.386Z,95242.52
2019-04-06T14:23:49.886Z,95241.20
2019-04-06T14:26:46.285Z,95242.27
2019-04-06T14:29:27.116Z,95239.36
2019-04-06T14:32:20.071Z,95239.07
2019-04-06T14:35:08.910Z,95239.05
2019-04-06T14:38:11.486Z,95241.68
2019-04-06T14:41:08.405Z,95239.81
2019-04-06T14:43:54.787Z,95240.06
2019-04-06T14:46:39.455Z,95232.41
2019-04-06T14:49:29.511Z,95234.80
2019-04-06T14:52:13.340Z,95225.27
2019-04-06T14:54:51.225Z,95218.41
2019-04-06T14:57:41.232Z,95216.78
2019-04-06T15:00:24.388Z,95217.33
2019-04-06T15:03:13.239Z,95218.14
2019-04-06T15:06:21.670Z,95225.05
2019-04-06T15:09:04.286Z,95218.92
2019-04-06T15:11:48.604Z,95217.88
2019-04-06T15:14:39.537Z,95222.64
2019-04-06T15:17:16.043Z,95223.95
2019-04-06T15:20:15.080Z,95216.81
2019-04-06T15:22:56.682Z,95223.47
2019-04-06T15:25:42.893Z,95225.05
2019-04-06T15:28:39.770Z,95218.16
2019-04-06T15:31:27.121Z,95218.17
2019-04-06T15:34:09.911Z,95216.03
2019-04-06T15:36:53.420Z,95206.24
2019-04-06T15:39:31.996Z,95203.58
2019-04-06T15:42:21.953Z,95204.13
2019-04-06T15:45:21.419Z,95207.00
2019-04-06T15:48:08.027Z,95205.16
2019-04-06T15:50:50.038Z,95207.55
2019-04-06T15:53:36.402Z,95197.70
2019-04-06T15:56:35.726Z,95199.01
2019-04-06T15:59:21.561Z,95201.38
2019-04-06T16:02:02.558Z,95200.31
2019-04-06T16:05:04.032Z,95194.47
2019-04-06T16:08:00.743Z,95196.06
2019-04-06T16:10:44.543Z,95195.80
2019-04-06T16:13:32.187Z,95187.84
2019-04-06T16:16:09.273Z,95185.49
2019-04-06T16:18:52.077Z,95187.61
2019-04-06T16:21:31.819Z,95179.41
2019-04-06T16:24:27.726Z,95185.75
2019-04-06T16:27:16.712Z,95186.25
2019-04-06T16:29:54.831Z,95185.21
2019-04-06T16:32:34.841Z,95180.70
2019-04-06T16:35:35.165Z,95184.13
2019-04-06T16:38:29.688Z,95185.21
2019-04-06T16:41:25.713Z,95186.25
2019-04-06T16:44:10.269Z,95184.42
2019-04-06T16:46:59.492Z,95183.37
2019-04-06T16:49:48.761Z,95183.63
2019-04-06T16:52:29.988Z,95179.13
2019-04-06T16:55:10.957Z,95180.45
2019-04-06T16:58:10.116Z,95177.02
2019-04-06T17:00:59.650Z,95177.52
2019-04-06T17:03:48.682Z,95181.77
2019-04-06T17:06:38.751Z,95188.39
2019-04-06T17:09:44.422Z,95189.21
2019-04-06T17:12:37.692Z,95189.47
2019-04-06T17:15:35.663Z,95190.25
2019-04-06T17:18:18.811Z,95192.64
2019-04-06T17:21:14.864Z,95188.45
2019-04-06T17:23:54.820Z,95188.45
2019-04-06T17:26:48.126Z,95188.44
2019-04-06T17:29:43.927Z,95186.88
2019-04-06T17:32:38.114Z,95186.89
2019-04-06T17:35:31.203Z,95190.60
2019-04-06T17:38:12.337Z,95190.89
2019-04-06T17:41:20.450Z,95185.61
2019-04-06T17:44:04.085Z,95191.95
2019-04-06T17:46:57.275Z,95189.33
2019-04-06T17:49:49.475Z,95193.83
2019-04-06T17:52:28.144Z,95189.08
2019-04-06T17:55:15.003Z,95193.06
2019-04-06T17:58:04.060Z,95190.41
2019-04-06T18:00:51.527Z,95194.14
2019-04-06T18:03:44.756Z,95198.38
2019-04-06T18:06:43.978Z,95202.84
2019-04-06T18:09:21.770Z,95201.23
2019-04-06T18:11:57.714Z,95200.97
2019-04-06T18:14:30.302Z,95204.40
2019-04-06T18:17:01.772Z,95204.14
2019-04-06T18:19:34.721Z,95202.82
2019-04-06T18:22:05.833Z,95210.50
2019-04-06T18:24:38.579Z,95210.21
2019-04-06T18:27:09.913Z,95210.47
2019-04-06T18:29:41.490Z,95213.38
2019-04-06T18:32:34.808Z,95220.50
2019-04-06T18:35:09.937Z,95221.27
2019-04-06T18:37:49.290Z,95231.33
2019-04-06T18:40:25.885Z,95228.94
2019-04-06T18:42:57.284Z,95232.09
2019-04-06T18:45:31.157Z,95240.28
2019-04-06T18:48:03.358Z,95237.37
2019-04-06T18:50:38.331Z,95237.89
2019-04-06T18:53:08.899Z,95241.58
2019-04-06T18:55:40.168Z,95242.36
2019-04-06T18:58:13.270Z,95240.19
2019-04-06T19:00:44.581Z,95247.05
2019-04-06T19:03:16.792Z,95243.59
2019-04-06T19:05:50.589Z,95245.41
2019-04-06T19:08:21.814Z,95247.78
2019-04-06T19:10:55.314Z,95256.73
2019-04-06T19:13:26.005Z,95259.63
2019-04-06T19:15:57.102Z,95254.52
2019-04-06T19:18:28.735Z,95255.53
2019-04-06T19:20:59.757Z,95258.70
2019-04-06T19:23:30.768Z,95256.97
2019-04-06T19:26:02.047Z,95254.32
2019-04-06T19:28:33.089Z,95263.52
2019-04-06T19:31:04.618Z,95265.67
2019-04-06T19:33:36.442Z,95259.84
2019-04-06T19:36:08.729Z,95261.09
2019-04-06T19:38:39.799Z,95260.30
2019-04-06T19:41:11.046Z,95260.77
2019-04-06T19:43:42.605Z,95255.73
2019-04-06T19:46:14.145Z,95256.73
2019-04-06T19:48:45.189Z,95257.83
2019-04-06T19:51:16.349Z,95251.27
2019-04-06T19:53:48.253Z,95251.51
2019-04-06T19:56:19.420Z,95248.84
2019-04-06T19:58:51.628Z,95246.93
2019-04-06T20:01:23.015Z,95248.13
2019-04-06T20:03:54.433Z,95241.78
2019-04-06T20:06:25.662Z,95242.95
2019-04-06T20:08:57.777Z,95240.05
2019-04-06T20:11:29.112Z,95234.17
2019-04-06T20:14:01.520Z,95234.03
2019-04-06T20:16:33.067Z,95244.14
2019-04-06T20:19:04.420Z,95238.84
2019-04-06T20:21:36.153Z,95233.47
2019-04-06T20:24:08.527Z,95237.61
2019-04-06T20:26:40.152Z,95239.67
2019-04-06T20:29:12.685Z,95230.02
2019-04-06T20:31:44.710Z,95242.68
2019-04-06T20:34:16.351Z,95240.98
2019-04-06T20:36:47.470Z,95240.48
2019-04-06T20:39:18.504Z,95244.48
2019-04-06T20:41:49.533Z,95250.98
2019-04-06T20:44:21.065Z,95244.66
2019-04-06T20:46:52.920Z,95240.69
2019-04-06T20:49:24.669Z,95241.24
2019-04-06T20:51:55.811Z,95237.29
2019-04-06T20:54:27.270Z,95232.00
2019-04-06T20:56:59.126Z,95236.52
2019-04-06T20:59:30.478Z,95236.47
2019-04-06T21:02:01.747Z,95239.85
2019-04-06T21:04:32.895Z,95234.56
2019-04-06T21:07:04.406Z,95236.09
2019-04-06T21:09:36.067Z,95241.12
2019-04-06T21:12:07.833Z,95236.87
2019-04-06T21:14:38.907Z,95233.45
2019-04-06T21:17:10.569Z,95232.33
2019-04-06T21:19:41.721Z,95228.86
2019-04-06T21:22:12.779Z,95227.55
2019-04-06T21:24:44.019Z,95234.56
2019-04-06T21:27:15.148Z,95231.09
2019-04-06T21:29:47.432Z,95230.14
2019-04-06T21:32:18.711Z,95228.41
2019-04-06T21:34:49.696Z,95231.70
2019-04-06T21:37:21.141Z,95227.51
2019-04-06T21:39:52.213Z,95230.30
2019-04-06T21:42:23.234Z,95232.30
2019-04-06T21:44:55.738Z,95234.12
2019-04-06T21:47:27.423Z,95227.66
2019-04-06T21:49:58.596Z,95227.03
2019-04-06T21:52:30.044Z,95224.70
2019-04-06T21:55:01.174Z,95232.09
2019-04-06T21:57:32.255Z,95225.51
2019-04-06T22:00:04.271Z,95226.25
2019-04-06T22:02:37.299Z,95230.44
2019-04-06T22:05:09.622Z,95233.25
2019-04-06T22:07:48.697Z,95228.29
2019-04-06T22:10:13.961Z,95225.50
2019-04-06T22:12:44.899Z,95231.06
2019-04-06T22:15:16.447Z,95224.69
2019-04-06T22:17:47.772Z,95226.21
2019-04-06T22:20:18.889Z,95230.46
2019-04-06T22:22:51.359Z,95233.80
2019-04-06T22:25:22.641Z,95237.07
2019-04-06T22:27:54.043Z,95241.69
2019-04-06T22:30:25.900Z,95233.40
2019-04-06T22:32:57.296Z,95236.27
2019-04-06T22:35:28.451Z,95237.72
2019-04-06T22:37:59.979Z,95239.67
2019-04-06T22:40:31.468Z,95227.98
2019-04-06T22:43:03.050Z,95230.67
2019-04-06T22:45:34.791Z,95233.66
2019-04-06T22:48:05.994Z,95232.08
2019-04-06T22:50:37.235Z,95230.70
2019-04-06T22:53:08.731Z,95226.56
2019-04-06T22:55:40.258Z,95227.88
2019-04-06T22:58:11.795Z,95224.23
2019-04-06T23:00:50.391Z,95223.19
2019-04-06T23:03:42.299Z,95230.72
2019-04-06T23:06:17.968Z,95224.28
2019-04-06T23:08:49.538Z,95226.33
2019-04-06T23:11:20.671Z,95224.67
2019-04-06T23:13:51.835Z,95230.89
2019-04-06T23:16:23.046Z,95233.33
2019-04-06T23:18:54.052Z,95227.57
2019-04-06T23:21:25.025Z,95225.17
2019-04-06T23:23:56.027Z,95227.80
2019-04-06T23:26:27.284Z,95228.38
2019-04-06T23:28:58.447Z,95224.09
2019-04-06T23:31:29.538Z,95223.82
2019-04-06T23:34:01.130Z,95227.77
2019-04-06T23:36:33.269Z,95229.89
2019-04-06T23:39:06.812Z,95224.10
2019-04-06T23:41:37.869Z,95227.42
2019-04-06T23:44:09.045Z,95224.56
2019-04-06T23:46:40.690Z,95229.04
2019-04-06T23:49:12.063Z,95231.44
2019-04-06T23:51:43.065Z,95229.49
2019-04-06T23:54:14.617Z,95230.80
2019-04-06T23:56:46.227Z,95227.49
2019-04-06T23:59:17.930Z,95224.41
